Time;durP1;ratioP1;P1;durP2;ratioP2;P2;SDS_P1;SDS_P2;PMS_P1;PMS_P2;Temp;Humidity;BMP_temperature;BMP_pressure;BME280_temperature;BME280_humidity;BME280_pressure;Samples;Min_cycle;Max_cycle;Signal;HPM_P1;HPM_P2
2024/02/08 00:02:14;;;;;;;0.30;0.10;;;9.60;7.20;;;;;;5052304;28;20740;-58
2024/02/08 00:04:44;;;;;;;0.30;0.10;;;9.60;6.60;;;;;;5054152;28;20744;-58
2024/02/08 00:07:11;;;;;;;0.40;0.10;;;9.70;1.00;;;;;;5053795;28;20880;-58
2024/02/08 00:09:38;;;;;;;0.30;0.10;;;9.70;1.10;;;;;;5054174;28;20459;-58
2024/02/08 00:12:06;;;;;;;0.40;0.10;;;9.70;1.00;;;;;;5053547;28;20457;-59
2024/02/08 00:14:33;;;;;;;0.40;0.10;;;9.70;5.20;;;;;;5054366;28;20505;-59
2024/02/08 00:16:59;;;;;;;0.40;0.10;;;9.70;1.00;;;;;;5053505;28;20482;-59
2024/02/08 00:19:26;;;;;;;0.30;0.10;;;9.80;1.00;;;;;;5043310;28;20536;-60
2024/02/08 00:21:55;;;;;;;0.50;0.10;;;9.70;1.00;;;;;;5053435;28;20576;-60
2024/02/08 00:24:22;;;;;;;0.30;0.10;;;9.70;2.10;;;;;;5051672;28;20517;-59
2024/02/08 00:26:48;;;;;;;0.40;0.10;;;9.70;3.00;;;;;;5050299;28;20499;-59
2024/02/08 00:29:15;;;;;;;0.30;0.10;;;9.70;10.00;;;;;;5051897;28;20471;-60
2024/02/08 00:31:43;;;;;;;0.40;0.10;;;9.70;11.50;;;;;;5052933;28;20514;-60
2024/02/08 00:34:11;;;;;;;0.40;0.20;;;9.80;13.30;;;;;;5052214;28;20494;-59
2024/02/08 00:36:37;;;;;;;0.40;0.10;;;9.80;9.50;;;;;;5053020;28;20487;-59
2024/02/08 00:39:06;;;;;;;0.30;0.10;;;9.80;10.00;;;;;;5054767;28;20469;-59
2024/02/08 00:41:33;;;;;;;0.40;0.10;;;9.80;4.70;;;;;;5054889;28;20421;-59
2024/02/08 00:44:00;;;;;;;0.30;0.10;;;9.80;5.80;;;;;;5054890;28;20453;-59
2024/02/08 00:46:27;;;;;;;0.30;0.10;;;9.80;3.90;;;;;;5054892;28;20429;-59
2024/02/08 00:48:54;;;;;;;0.70;0.10;;;9.80;4.60;;;;;;5053839;28;20467;-59
2024/02/08 00:51:21;;;;;;;0.30;0.10;;;9.80;5.40;;;;;;5054692;28;20465;-60
2024/02/08 00:53:48;;;;;;;0.30;0.10;;;9.80;6.70;;;;;;5054571;28;20491;-60
2024/02/08 00:56:16;;;;;;;0.30;0.10;;;9.80;6.90;;;;;;5054296;28;20483;-59
2024/02/08 00:58:44;;;;;;;0.30;0.10;;;9.80;6.90;;;;;;5055125;28;20531;-59
2024/02/08 01:01:11;;;;;;;0.30;0.10;;;9.80;9.30;;;;;;5054405;28;20780;-59
2024/02/08 01:03:38;;;;;;;0.40;0.10;;;9.80;12.90;;;;;;5055755;28;20463;-59
2024/02/08 01:06:05;;;;;;;0.80;0.10;;;9.80;10.10;;;;;;5052718;28;20523;-59
2024/02/08 01:08:33;;;;;;;0.40;0.10;;;9.80;14.50;;;;;;5054525;28;20453;-59
2024/02/08 01:11:00;;;;;;;0.30;0.10;;;9.80;13.00;;;;;;5053680;28;20456;-59
2024/02/08 01:13:31;;;;;;;0.35;0.10;;;9.80;13.90;;;;;;5054970;28;20433;-59
2024/02/08 01:15:58;;;;;;;0.30;0.10;;;9.80;18.10;;;;;;5056808;28;20532;-59
2024/02/08 01:18:25;;;;;;;0.70;0.10;;;9.80;20.60;;;;;;5056860;28;20441;-59
2024/02/08 01:20:53;;;;;;;0.30;0.10;;;9.80;22.70;;;;;;5044621;28;20835;-59
2024/02/08 01:23:22;;;;;;;0.30;0.10;;;9.80;21.90;;;;;;5057342;28;20421;-59
2024/02/08 01:25:50;;;;;;;0.30;0.10;;;9.80;99.90;;;;;;5057754;28;20436;-59
2024/02/08 01:28:17;;;;;;;0.30;0.10;;;9.80;26.90;;;;;;5058066;28;20538;-59
2024/02/08 01:30:45;;;;;;;0.40;0.10;;;9.80;99.90;;;;;;5056930;28;21076;-60
2024/02/08 01:33:12;;;;;;;0.40;0.10;;;9.90;99.90;;;;;;5057563;28;20437;-60
2024/02/08 01:35:40;;;;;;;0.30;0.10;;;9.90;99.90;;;;;;5056245;28;20472;-60
2024/02/08 01:38:08;;;;;;;0.40;0.10;;;9.90;99.90;;;;;;5072044;28;20565;-60
2024/02/08 01:40:35;;;;;;;0.30;0.10;;;9.90;99.90;;;;;;5074815;28;20514;-60
2024/02/08 01:43:04;;;;;;;0.30;0.10;;;9.90;99.90;;;;;;5056170;28;20429;-59
2024/02/08 01:45:34;;;;;;;0.30;0.10;;;9.90;99.90;;;;;;5057020;28;20430;-60
2024/02/08 01:48:05;;;;;;;0.30;0.10;;;9.90;99.90;;;;;;5057742;28;20463;-60
2024/02/08 01:50:35;;;;;;;0.30;0.10;;;9.90;99.90;;;;;;5056413;28;20409;-57
2024/02/08 01:53:03;;;;;;;0.30;0.10;;;9.90;99.90;;;;;;5055655;28;20453;-59
2024/02/08 01:55:33;;;;;;;0.50;0.10;;;9.90;99.90;;;;;;5057372;28;20452;-59
2024/02/08 01:58:05;;;;;;;0.30;0.10;;;9.90;99.90;;;;;;5058089;28;20429;-59
2024/02/08 02:00:36;;;;;;;0.30;0.10;;;9.90;99.90;;;;;;5057294;28;20428;-59
2024/02/08 02:03:09;;;;;;;0.30;0.10;;;9.90;99.90;;;;;;5075646;28;20427;-58
2024/02/08 02:05:37;;;;;;;0.30;0.10;;;9.90;99.90;;;;;;5072298;28;20437;-57
2024/02/08 02:08:05;;;;;;;0.30;0.20;;;9.90;99.90;;;;;;5054400;28;20429;-58
2024/02/08 02:10:33;;;;;;;0.30;0.10;;;9.90;99.90;;;;;;5055548;28;20738;-58
2024/02/08 02:13:03;;;;;;;0.30;0.10;;;9.90;99.90;;;;;;5054719;28;20433;-58
2024/02/08 02:15:31;;;;;;;0.30;0.10;;;9.90;99.90;;;;;;5054941;28;20429;-58
2024/02/08 02:18:03;;;;;;;0.40;0.10;;;9.90;99.90;;;;;;5055706;28;20476;-58
2024/02/08 02:20:31;;;;;;;0.40;0.10;;;9.90;99.90;;;;;;5056587;28;20494;-58
2024/02/08 02:23:01;;;;;;;0.30;0.10;;;10.00;99.90;;;;;;5056623;28;20913;-58
2024/02/08 02:25:29;;;;;;;0.40;0.10;;;10.00;99.90;;;;;;5055948;28;20476;-58
2024/02/08 02:27:58;;;;;;;0.30;0.10;;;10.00;99.90;;;;;;5057228;28;20831;-58
2024/02/08 02:30:26;;;;;;;0.30;0.10;;;10.00;99.90;;;;;;5070258;28;20835;-58
2024/02/08 02:32:59;;;;;;;0.30;0.10;;;10.00;99.90;;;;;;5055065;28;20461;-58
2024/02/08 02:35:28;;;;;;;0.30;0.10;;;10.00;99.90;;;;;;5055355;28;20426;-59
2024/02/08 02:37:58;;;;;;;0.40;0.10;;;10.00;99.90;;;;;;5056461;28;20496;-59
2024/02/08 02:40:28;;;;;;;0.50;0.10;;;10.00;99.90;;;;;;5055467;28;20524;-58
2024/02/08 02:42:55;;;;;;;0.40;0.10;;;10.00;99.90;;;;;;5056606;28;20443;-58
2024/02/08 02:45:23;;;;;;;0.50;0.10;;;10.00;99.90;;;;;;5056331;28;20456;-59
2024/02/08 02:47:53;;;;;;;0.30;0.10;;;10.00;99.90;;;;;;5056048;28;20772;-58
2024/02/08 02:50:20;;;;;;;0.30;0.10;;;10.00;99.90;;;;;;5055799;28;20867;-58
2024/02/08 02:52:47;;;;;;;0.30;0.10;;;10.00;99.90;;;;;;5048104;28;20518;-58
2024/02/08 02:55:15;;;;;;;0.38;0.10;;;10.00;99.90;;;;;;5055959;28;20461;-58
2024/02/08 02:57:43;;;;;;;0.30;0.10;;;10.10;99.90;;;;;;5062044;28;20434;-58
2024/02/08 03:00:21;;;;;;;0.30;0.10;;;10.10;99.90;;;;;;5075861;28;20481;-58
2024/02/08 03:02:52;;;;;;;0.30;0.10;;;10.20;99.90;;;;;;5076714;28;20518;-57
2024/02/08 03:05:20;;;;;;;0.30;0.10;;;10.10;99.90;;;;;;5074324;28;20497;-58
2024/02/08 03:07:48;;;;;;;0.30;0.10;;;10.10;99.90;;;;;;5054735;28;20543;-58
2024/02/08 03:10:19;;;;;;;0.30;0.10;;;10.10;99.90;;;;;;5055539;28;20417;-58
2024/02/08 03:12:49;;;;;;;1.20;0.10;;;10.00;60.60;;;;;;5056300;28;20429;-58
2024/02/08 03:15:16;;;;;;;0.40;0.10;;;10.00;70.30;;;;;;5055761;28;20429;-59
2024/02/08 03:17:44;;;;;;;0.30;0.10;;;10.00;99.90;;;;;;5055930;28;20491;-58
2024/02/08 03:20:16;;;;;;;0.30;0.10;;;10.00;99.90;;;;;;5055905;28;20441;-58
2024/02/08 03:22:44;;;;;;;0.30;0.10;;;10.00;99.90;;;;;;5055630;28;20445;-58
2024/02/08 03:25:14;;;;;;;0.30;0.10;;;10.00;99.90;;;;;;5055095;28;20468;-58
2024/02/08 03:27:42;;;;;;;0.30;0.10;;;10.00;99.90;;;;;;5055552;28;20456;-58
2024/02/08 03:30:19;;;;;;;0.30;0.10;;;10.00;99.90;;;;;;5055539;28;20441;-58
2024/02/08 03:32:50;;;;;;;0.30;0.10;;;10.00;99.90;;;;;;5054144;28;20870;-59
2024/02/08 03:35:25;;;;;;;0.30;0.10;;;10.00;99.90;;;;;;5054133;28;20495;-58
2024/02/08 03:37:54;;;;;;;0.30;0.10;;;10.00;99.90;;;;;;5054247;28;20434;-58
2024/02/08 03:40:21;;;;;;;0.30;0.10;;;10.10;99.90;;;;;;5053837;28;20448;-58
2024/02/08 03:42:49;;;;;;;0.30;0.10;;;10.10;99.90;;;;;;5054427;28;20433;-58
2024/02/08 03:45:23;;;;;;;0.30;0.10;;;10.10;99.90;;;;;;5054720;28;20520;-58
2024/02/08 03:47:52;;;;;;;0.30;0.10;;;10.10;99.90;;;;;;5054071;28;20441;-58
2024/02/08 03:50:19;;;;;;;0.30;0.10;;;10.20;99.90;;;;;;5054143;28;20433;-58
2024/02/08 03:52:46;;;;;;;0.30;0.10;;;10.20;99.90;;;;;;5055118;28;20459;-58
2024/02/08 03:55:16;;;;;;;0.30;0.10;;;10.20;99.90;;;;;;5054404;28;20498;-58
2024/02/08 03:57:48;;;;;;;0.60;0.10;;;10.20;99.90;;;;;;5054637;28;20437;-59
2024/02/08 04:00:27;;;;;;;0.40;0.10;;;10.30;99.90;;;;;;5055354;28;20441;-58
2024/02/08 04:02:56;;;;;;;0.30;0.10;;;10.30;99.90;;;;;;5054479;28;20437;-59
2024/02/08 04:05:36;;;;;;;0.30;0.10;;;10.30;99.90;;;;;;5052914;28;20436;-57
2024/02/08 04:08:22;;;;;;;0.30;0.10;;;10.30;99.90;;;;;;5054280;28;20865;-58
2024/02/08 04:54:48;;;;;;;0.30;0.10;;;10.40;99.90;;;;;;5056151;28;20567;-58
2024/02/08 04:57:15;;;;;;;0.40;0.10;;;10.40;99.90;;;;;;5057836;28;20429;-58
2024/02/08 04:59:45;;;;;;;0.30;0.10;;;10.40;99.90;;;;;;5055691;28;20827;-58
2024/02/08 05:02:13;;;;;;;0.40;0.10;;;10.40;99.90;;;;;;5057352;28;20433;-59
2024/02/08 05:04:42;;;;;;;0.30;0.10;;;10.40;99.90;;;;;;5057285;28;20440;-59
2024/02/08 05:07:09;;;;;;;0.30;0.10;;;10.40;99.90;;;;;;5057949;28;20439;-59
2024/02/08 05:09:39;;;;;;;0.50;0.10;;;10.30;99.90;;;;;;5056965;28;20830;-58
2024/02/08 05:12:07;;;;;;;0.30;0.10;;;10.30;99.90;;;;;;5057822;28;20429;-59
2024/02/08 05:14:35;;;;;;;0.40;0.10;;;10.30;99.90;;;;;;5057057;28;20429;-59
2024/02/08 05:17:02;;;;;;;0.30;0.10;;;10.30;99.90;;;;;;5056833;28;20433;-59
2024/02/08 05:19:29;;;;;;;0.30;0.10;;;10.30;99.90;;;;;;5057453;28;20880;-58
2024/02/08 05:21:59;;;;;;;0.30;0.10;;;10.20;99.90;;;;;;5056434;28;20695;-57
2024/02/08 05:24:27;;;;;;;0.40;0.20;;;10.20;99.90;;;;;;5057451;28;20452;-57
2024/02/08 05:26:54;;;;;;;0.60;0.10;;;10.20;99.90;;;;;;5056612;28;20491;-55
2024/02/08 05:29:21;;;;;;;0.30;0.10;;;10.20;99.90;;;;;;5037878;28;20458;-57
2024/02/08 05:31:49;;;;;;;0.30;0.10;;;10.10;99.90;;;;;;5056462;28;20436;-55
2024/02/08 05:34:16;;;;;;;0.80;0.20;;;10.10;99.90;;;;;;5056243;28;20451;-56
2024/02/08 05:36:43;;;;;;;0.30;0.10;;;10.00;99.90;;;;;;5056923;28;20471;-57
2024/02/08 05:39:12;;;;;;;0.30;0.10;;;9.90;99.90;;;;;;5056733;28;20425;-57
2024/02/08 05:41:44;;;;;;;0.47;0.10;;;9.90;99.90;;;;;;5056222;28;20925;-56
2024/02/08 05:44:12;;;;;;;0.30;0.10;;;9.90;99.90;;;;;;5046066;28;20437;-57
2024/02/08 05:46:39;;;;;;;0.30;0.10;;;9.90;99.90;;;;;;5056725;28;20461;-57
2024/02/08 05:49:11;;;;;;;0.30;0.10;;;9.90;99.90;;;;;;5056070;28;20504;-58
2024/02/08 05:51:42;;;;;;;1.60;0.10;;;9.90;99.90;;;;;;5055931;28;20417;-59
2024/02/08 05:54:09;;;;;;;0.70;0.10;;;9.90;99.90;;;;;;5055925;28;20490;-55
2024/02/08 05:56:39;;;;;;;0.50;0.10;;;9.90;99.90;;;;;;5056405;28;20515;-55
2024/02/08 05:59:08;;;;;;;0.40;0.10;;;9.90;99.90;;;;;;5056142;28;20447;-53
2024/02/08 06:01:44;;;;;;;0.40;0.10;;;9.90;99.90;;;;;;5046575;28;20489;-54
2024/02/08 06:04:12;;;;;;;0.30;0.10;;;10.00;99.90;;;;;;5054215;28;20887;-54
2024/02/08 06:06:48;;;;;;;0.90;0.10;;;10.00;99.90;;;;;;5054282;28;20436;-53
2024/02/08 06:09:37;;;;;;;0.30;0.10;;;10.00;99.90;;;;;;5065073;28;20433;-54
2024/02/08 06:12:09;;;;;;;0.30;0.10;;;9.90;99.90;;;;;;5052872;28;20922;-56
2024/02/08 06:14:38;;;;;;;0.30;0.10;;;9.90;99.90;;;;;;5044550;28;20422;-55
2024/02/08 06:17:07;;;;;;;0.30;0.10;;;9.90;99.90;;;;;;5051572;28;20544;-56
2024/02/08 06:19:37;;;;;;;0.30;0.10;;;9.80;99.90;;;;;;5060347;28;20878;-53
2024/02/08 06:22:16;;;;;;;0.40;0.20;;;9.80;99.90;;;;;;5040647;28;20439;-49
2024/02/08 06:24:45;;;;;;;0.30;0.10;;;9.80;99.90;;;;;;5041738;28;20467;-54
2024/02/08 06:27:22;;;;;;;0.40;0.10;;;9.70;99.90;;;;;;5055425;28;20975;-54
2024/02/08 06:29:50;;;;;;;0.50;0.10;;;9.70;99.90;;;;;;5053755;28;20425;-53
2024/02/08 06:32:43;;;;;;;0.40;0.10;;;9.80;99.90;;;;;;5057613;28;21434;-55
2024/02/08 06:35:12;;;;;;;0.30;0.10;;;9.80;99.90;;;;;;5055655;28;20425;-53
2024/02/08 06:37:44;;;;;;;0.30;0.10;;;9.80;99.90;;;;;;5064998;28;20437;-54
2024/02/08 06:40:21;;;;;;;0.30;0.10;;;9.80;99.90;;;;;;5054687;28;20429;-55
2024/02/08 06:46:09;;;;;;;0.40;0.20;;;9.80;99.90;;;;;;5053821;28;20499;-53
2024/02/08 07:38:08;;;;;;;0.40;0.20;;;9.80;99.90;;;;;;5052737;28;20416;-52
2024/02/08 07:40:35;;;;;;;0.30;0.10;;;9.80;99.90;;;;;;5039686;28;20723;-51
2024/02/08 07:43:34;;;;;;;0.40;0.10;;;9.90;99.90;;;;;;5036598;28;20441;-55
2024/02/08 07:46:04;;;;;;;0.30;0.10;;;10.00;99.90;;;;;;5042106;28;20439;-57
2024/02/08 07:48:39;;;;;;;0.50;0.10;;;10.00;99.90;;;;;;5052534;28;20706;-56
2024/02/08 07:51:06;;;;;;;0.77;0.20;;;10.00;99.90;;;;;;5047728;28;20434;-51
2024/02/08 07:53:45;;;;;;;0.57;0.10;;;10.00;99.90;;;;;;5053195;28;20866;-55
2024/02/08 07:56:37;;;;;;;0.32;0.10;;;10.00;99.90;;;;;;5053654;28;20444;-55
2024/02/08 07:59:04;;;;;;;0.30;0.10;;;10.00;99.90;;;;;;5054277;28;20424;-55
2024/02/08 08:01:38;;;;;;;0.40;0.10;;;10.10;99.90;;;;;;5053423;28;20863;-56
2024/02/08 08:04:09;;;;;;;0.38;0.10;;;10.10;99.90;;;;;;5054185;28;20417;-54
2024/02/08 08:06:46;;;;;;;0.30;0.10;;;10.10;99.90;;;;;;5052303;28;20425;-55
2024/02/08 08:09:20;;;;;;;0.30;0.10;;;10.20;99.90;;;;;;5052841;28;20428;-55
2024/02/08 08:11:48;;;;;;;0.60;0.20;;;10.20;99.90;;;;;;5035170;28;20525;-55
2024/02/08 08:17:10;;;;;;;0.47;0.28;;;10.20;99.90;;;;;;5038527;28;20405;-54
2024/02/08 08:19:41;;;;;;;0.60;0.20;;;10.30;99.90;;;;;;5052125;28;20543;-54
2024/02/08 08:22:50;;;;;;;0.50;0.20;;;10.30;99.90;;;;;;5052679;28;20456;-56
2024/02/08 08:25:28;;;;;;;0.40;0.20;;;10.40;99.90;;;;;;5057521;28;20417;-55
2024/02/08 08:28:09;;;;;;;1.00;0.20;;;10.50;99.90;;;;;;5056890;28;20433;-54
2024/02/08 08:30:38;;;;;;;0.70;0.30;;;10.50;99.90;;;;;;5039717;28;20442;-54
2024/02/08 08:33:09;;;;;;;0.30;0.20;;;10.50;99.90;;;;;;5043122;28;20903;-54
2024/02/08 08:35:37;;;;;;;1.20;0.20;;;10.60;99.90;;;;;;5058437;28;20714;-54
2024/02/08 08:41:00;;;;;;;1.00;0.10;;;10.60;99.90;;;;;;5052031;28;20530;-56
2024/02/08 08:43:31;;;;;;;0.30;0.10;;;10.60;99.90;;;;;;5056297;28;20424;-53
2024/02/08 08:46:00;;;;;;;1.00;0.28;;;10.70;99.90;;;;;;5037908;28;20423;-56
2024/02/08 08:48:31;;;;;;;0.57;0.20;;;10.60;99.90;;;;;;5043634;28;20432;-58
2024/02/08 08:51:10;;;;;;;0.50;0.13;;;10.60;99.90;;;;;;5057327;28;20428;-57
2024/02/08 08:53:43;;;;;;;1.00;0.20;;;10.60;99.90;;;;;;5056377;28;20536;-56
2024/02/08 08:56:11;;;;;;;0.30;0.10;;;10.60;99.90;;;;;;5056224;28;20429;-57
2024/02/08 08:58:39;;;;;;;0.40;0.10;;;10.60;99.90;;;;;;5056186;28;20733;-57
2024/02/08 09:01:15;;;;;;;0.32;0.20;;;10.70;99.90;;;;;;5055875;28;20472;-54
2024/02/08 09:03:44;;;;;;;0.40;0.10;;;10.80;99.90;;;;;;5055556;28;20851;-57
2024/02/08 09:06:13;;;;;;;0.43;0.10;;;10.80;99.90;;;;;;5054243;28;20708;-56
2024/02/08 09:08:45;;;;;;;0.70;0.20;;;11.10;99.90;;;;;;5055424;28;20839;-55
2024/02/08 09:11:14;;;;;;;1.27;0.20;;;11.00;99.90;;;;;;5056486;28;20913;-54
2024/02/08 09:13:42;;;;;;;0.40;0.20;;;11.00;99.90;;;;;;5044354;28;20429;-54
2024/02/08 09:19:12;;;;;;;0.30;0.10;;;11.10;99.90;;;;;;5039529;28;20395;-52
2024/02/08 09:21:40;;;;;;;0.70;0.20;;;11.20;99.90;;;;;;5068669;28;20462;-54
2024/02/08 09:24:17;;;;;;;0.80;0.40;;;11.20;99.90;;;;;;5076288;28;20485;-56
2024/02/08 09:26:49;;;;;;;0.60;0.30;;;11.10;99.90;;;;;;5037313;28;20431;-54
2024/02/08 09:29:23;;;;;;;0.40;0.20;;;11.20;99.90;;;;;;5036614;28;20941;-53
2024/02/08 09:31:56;;;;;;;0.30;0.10;;;11.20;99.90;;;;;;5037140;28;20439;-55
2024/02/08 09:34:31;;;;;;;0.40;0.20;;;11.30;99.90;;;;;;5035569;28;20764;-54
2024/02/08 09:36:59;;;;;;;0.60;0.20;;;11.30;99.90;;;;;;5054609;28;20421;-55
2024/02/08 09:39:53;;;;;;;0.80;0.20;;;11.30;99.90;;;;;;5066218;28;20467;-54
2024/02/08 09:42:15;;;;;;;0.45;0.20;;;11.30;99.90;;;;;;5056433;28;20535;-54
2024/02/08 09:44:49;;;;;;;0.80;0.10;;;11.30;99.90;;;;;;5052707;28;20440;-57
2024/02/08 09:47:25;;;;;;;0.50;0.20;;;11.40;99.90;;;;;;5065620;28;20433;-57
2024/02/08 09:50:00;;;;;;;1.65;0.20;;;11.50;99.90;;;;;;5070248;28;20813;-56
2024/02/08 09:52:56;;;;;;;1.17;0.20;;;11.50;99.90;;;;;;5064002;28;20429;-56
2024/02/08 09:55:49;;;;;;;1.20;0.20;;;11.60;99.90;;;;;;5033867;28;20419;-58
2024/02/08 09:58:31;;;;;;;0.40;0.20;;;11.50;99.90;;;;;;5062530;28;20492;-54
2024/02/08 10:00:58;;;;;;;0.98;0.20;;;11.50;99.90;;;;;;5075721;28;20726;-58
2024/02/08 10:03:32;;;;;;;0.40;0.17;;;11.60;99.90;;;;;;5076663;28;20427;-56
2024/02/08 10:06:12;;;;;;;0.30;0.10;;;11.60;99.90;;;;;;5069441;28;20437;-56
2024/02/08 10:08:51;;;;;;;0.50;0.10;;;11.50;99.90;;;;;;5055599;28;20437;-57
2024/02/08 10:11:36;;;;;;;0.40;0.20;;;11.60;99.90;;;;;;5042491;28;21025;-56
2024/02/08 10:14:06;;;;;;;1.10;0.20;;;11.60;99.90;;;;;;5054453;28;20434;-56
2024/02/08 10:19:28;;;;;;;0.40;0.10;;;11.70;99.90;;;;;;5060058;28;20499;-57
2024/02/08 10:21:57;;;;;;;0.30;0.10;;;11.80;99.90;;;;;;5070738;28;20891;-57
2024/02/08 10:26:17;;;;;;;0.40;0.15;;;11.70;99.90;;;;;;5072051;28;20693;-56
2024/02/08 10:27:19;;;;;;;1.00;0.30;;;11.70;99.90;;;;;;5055710;28;20425;-58
2024/02/08 10:29:47;;;;;;;0.30;0.10;;;11.90;99.90;;;;;;5055240;28;20515;-55
2024/02/08 10:32:18;;;;;;;0.40;0.20;;;12.00;99.90;;;;;;5054359;28;20510;-54
2024/02/08 10:34:45;;;;;;;0.30;0.13;;;12.00;99.90;;;;;;5054751;28;20429;-54
2024/02/08 10:37:46;;;;;;;0.40;0.20;;;11.90;99.90;;;;;;5062434;28;20443;-55
2024/02/08 10:40:28;;;;;;;0.40;0.10;;;12.00;99.90;;;;;;5072965;28;20836;-62
2024/02/08 10:42:53;;;;;;;0.40;0.10;;;11.90;99.90;;;;;;5066739;28;20432;-62
2024/02/08 10:45:23;;;;;;;0.40;0.20;;;11.90;99.90;;;;;;5060337;28;20546;-63
2024/02/08 10:47:55;;;;;;;0.40;0.10;;;11.90;99.90;;;;;;5063029;28;20952;-62
2024/02/08 10:50:27;;;;;;;0.45;0.20;;;11.90;99.90;;;;;;5054487;28;20433;-62
2024/02/08 10:53:00;;;;;;;0.60;0.20;;;11.80;99.90;;;;;;5033692;28;20427;-61
2024/02/08 10:55:36;;;;;;;0.57;0.20;;;11.90;99.90;;;;;;5035343;28;20756;-62
2024/02/08 11:01:06;;;;;;;0.40;0.20;;;11.70;99.90;;;;;;5048153;28;20500;-62
2024/02/08 11:03:42;;;;;;;0.50;0.20;;;11.70;99.90;;;;;;5048571;28;20454;-64
2024/02/08 11:06:26;;;;;;;0.40;0.20;;;11.80;99.90;;;;;;5045761;28;20435;-64
2024/02/08 11:09:09;;;;;;;0.40;0.20;;;11.80;99.90;;;;;;5033928;28;20439;-64
2024/02/08 11:11:44;;;;;;;0.40;0.10;;;11.90;99.90;;;;;;5034872;28;20506;-64
2024/02/08 11:14:17;;;;;;;0.30;0.10;;;11.90;99.90;;;;;;5035511;28;20523;-64
2024/02/08 11:16:47;;;;;;;0.70;0.20;;;12.20;99.90;;;;;;5033181;28;20823;-64
2024/02/08 11:19:17;;;;;;;0.40;0.15;;;12.30;99.90;;;;;;5035150;28;20861;-65
2024/02/08 11:21:44;;;;;;;0.40;0.20;;;12.30;99.90;;;;;;5035128;28;20784;-65
2024/02/08 11:24:27;;;;;;;0.40;0.20;;;12.40;99.90;;;;;;5034983;28;20442;-65
2024/02/08 11:26:58;;;;;;;0.30;0.10;;;12.60;99.90;;;;;;5034412;28;20442;-64
2024/02/08 11:29:27;;;;;;;0.50;0.20;;;12.40;99.90;;;;;;5034822;28;20911;-64
2024/02/08 11:31:56;;;;;;;0.30;0.10;;;12.40;99.90;;;;;;5035420;28;20742;-64
2024/02/08 11:34:33;;;;;;;0.40;0.10;;;12.40;99.90;;;;;;5035223;28;20510;-64
2024/02/08 11:37:15;;;;;;;0.40;0.13;;;12.50;99.90;;;;;;5034663;28;20426;-62
2024/02/08 11:39:46;;;;;;;0.40;0.20;;;12.50;99.90;;;;;;5033751;28;20431;-62
2024/02/08 11:42:17;;;;;;;1.50;0.30;;;12.60;99.90;;;;;;5034477;28;20467;-62
2024/02/08 11:44:44;;;;;;;0.40;0.20;;;12.70;99.90;;;;;;5034898;28;20462;-62
2024/02/08 11:47:23;;;;;;;0.40;0.20;;;12.80;99.90;;;;;;5039377;28;20498;-62
2024/02/08 11:49:54;;;;;;;0.50;0.20;;;12.90;99.90;;;;;;5053527;28;20721;-61
2024/02/08 11:52:23;;;;;;;1.42;0.38;;;12.80;99.90;;;;;;5042128;28;20851;-61
2024/02/08 11:55:00;;;;;;;0.50;0.20;;;12.90;99.90;;;;;;5032924;28;20490;-61
2024/02/08 11:57:36;;;;;;;0.30;0.20;;;12.90;99.90;;;;;;5032180;28;20423;-60
2024/02/08 12:00:15;;;;;;;0.40;0.20;;;12.90;99.90;;;;;;5033431;28;20438;-60
2024/02/08 12:02:56;;;;;;;1.58;0.20;;;13.00;99.90;;;;;;5032767;28;20478;-60
2024/02/08 12:05:24;;;;;;;0.40;0.10;;;13.00;99.90;;;;;;5032453;28;20485;-61
2024/02/08 12:07:51;;;;;;;0.40;0.13;;;13.00;99.90;;;;;;5056148;28;20422;-59
2024/02/08 12:10:22;;;;;;;0.50;0.20;;;12.90;99.90;;;;;;5054860;28;20845;-59
2024/02/08 12:12:54;;;;;;;0.70;0.30;;;13.00;99.90;;;;;;5054060;28;20500;-59
2024/02/08 12:15:22;;;;;;;0.60;0.20;;;13.20;99.90;;;;;;5053887;28;20464;-59
2024/02/08 12:17:52;;;;;;;1.23;0.20;;;13.20;99.90;;;;;;5053891;28;20431;-59
2024/02/08 12:20:20;;;;;;;2.08;0.30;;;13.30;99.90;;;;;;5054821;28;20684;-59
2024/02/08 12:22:53;;;;;;;0.80;0.30;;;13.30;99.90;;;;;;5052641;28;20489;-59
2024/02/08 12:25:20;;;;;;;1.83;0.20;;;13.20;99.90;;;;;;5054165;28;20779;-60
2024/02/08 12:27:57;;;;;;;0.60;0.20;;;13.20;99.90;;;;;;5066429;28;20439;-59
2024/02/08 12:30:28;;;;;;;0.30;0.10;;;13.30;99.90;;;;;;5074037;28;20705;-59
2024/02/08 12:32:56;;;;;;;0.68;0.20;;;13.30;99.90;;;;;;5073531;28;20458;-59
2024/02/08 12:35:26;;;;;;;0.40;0.20;;;13.40;99.90;;;;;;5072532;28;20463;-60
2024/02/08 12:37:58;;;;;;;1.10;0.30;;;13.40;99.90;;;;;;5054415;28;20523;-59
2024/02/08 12:40:29;;;;;;;1.10;0.30;;;13.40;99.90;;;;;;5053789;28;20483;-59
2024/02/08 12:42:58;;;;;;;0.50;0.20;;;13.50;99.90;;;;;;5052688;28;20440;-60
2024/02/08 12:45:28;;;;;;;1.90;0.30;;;13.50;99.90;;;;;;5056858;28;20427;-60
2024/02/08 12:47:57;;;;;;;1.60;0.20;;;13.50;99.90;;;;;;5071635;28;20833;-59
2024/02/08 12:50:31;;;;;;;0.90;0.20;;;13.50;99.90;;;;;;5072047;28;20431;-59
2024/02/08 12:52:58;;;;;;;0.75;0.20;;;13.60;99.90;;;;;;5040594;28;20451;-60
2024/02/08 12:55:29;;;;;;;0.65;0.20;;;13.60;99.90;;;;;;5051337;28;20471;-60
2024/02/08 12:57:58;;;;;;;0.70;0.30;;;13.60;99.90;;;;;;5053324;28;20512;-60
2024/02/08 13:00:25;;;;;;;0.90;0.20;;;13.70;99.90;;;;;;5053798;28;20459;-59
2024/02/08 13:02:54;;;;;;;0.40;0.20;;;13.80;99.90;;;;;;5053366;28;20465;-59
2024/02/08 13:05:28;;;;;;;0.60;0.28;;;13.90;99.90;;;;;;5051702;28;20429;-59
2024/02/08 13:07:59;;;;;;;1.30;0.20;;;13.90;99.90;;;;;;5020498;28;20428;-59
2024/02/08 13:10:28;;;;;;;1.63;0.20;;;13.60;99.90;;;;;;5016519;28;20505;-59
2024/02/08 13:13:09;;;;;;;0.75;0.30;;;13.60;99.90;;;;;;5023510;28;20752;-59
2024/02/08 13:15:36;;;;;;;0.65;0.30;;;13.60;99.90;;;;;;5035233;28;20755;-59
2024/02/08 13:18:09;;;;;;;0.75;0.30;;;13.60;99.90;;;;;;5036745;28;20803;-60
2024/02/08 13:20:37;;;;;;;1.52;0.30;;;13.60;99.90;;;;;;5037753;28;20453;-60
2024/02/08 13:23:04;;;;;;;1.10;0.30;;;13.60;99.90;;;;;;5036630;28;20825;-59
2024/02/08 13:25:32;;;;;;;1.30;0.30;;;13.60;99.90;;;;;;5027027;28;20848;-59
2024/02/08 13:27:59;;;;;;;1.33;0.30;;;13.60;99.90;;;;;;5032037;28;21100;-58
2024/02/08 13:30:36;;;;;;;0.82;0.30;;;13.60;99.90;;;;;;5036438;28;20426;-59
2024/02/08 13:33:05;;;;;;;1.20;0.30;;;13.60;99.90;;;;;;5035560;28;20430;-59
2024/02/08 13:35:39;;;;;;;0.55;0.30;;;13.50;99.90;;;;;;5036321;28;20441;-59
2024/02/08 13:38:10;;;;;;;1.50;0.40;;;13.50;99.90;;;;;;5037025;28;20458;-59
2024/02/08 13:40:42;;;;;;;1.40;0.30;;;13.50;99.90;;;;;;5036226;28;20438;-59
2024/02/08 13:43:10;;;;;;;0.70;0.40;;;13.60;99.90;;;;;;5037156;28;20529;-59
2024/02/08 13:45:39;;;;;;;2.03;0.40;;;13.60;99.90;;;;;;5036676;28;20434;-59
2024/02/08 13:48:12;;;;;;;2.05;0.40;;;13.60;39.40;;;;;;5036888;28;20477;-59
2024/02/08 13:50:43;;;;;;;0.70;0.30;;;13.60;1.00;;;;;;5035832;28;20486;-58
2024/02/08 13:53:10;;;;;;;3.10;0.50;;;13.70;99.90;;;;;;5034992;28;20484;-59
2024/02/08 13:55:37;;;;;;;1.17;0.30;;;13.80;45.70;;;;;;5036066;28;20426;-58
2024/02/08 13:58:08;;;;;;;1.88;0.40;;;13.70;1.00;;;;;;5035645;28;20450;-59
2024/02/08 14:00:35;;;;;;;3.30;0.50;;;13.70;1.00;;;;;;5036584;28;20772;-59
2024/02/08 14:03:04;;;;;;;2.55;0.40;;;13.70;1.00;;;;;;5036108;28;20501;-59
2024/02/08 14:05:36;;;;;;;1.98;0.40;;;13.70;99.90;;;;;;5037118;28;20490;-59
2024/02/08 14:08:03;;;;;;;2.03;0.40;;;13.70;99.90;;;;;;5057194;28;20456;-58
2024/02/08 14:10:31;;;;;;;2.60;0.40;;;13.70;1.00;;;;;;5056368;28;20413;-60
2024/02/08 14:13:00;;;;;;;4.43;0.40;;;13.80;1.00;;;;;;5056862;28;20795;-59
2024/02/08 14:15:29;;;;;;;2.47;0.40;;;13.90;99.90;;;;;;5056108;28;20881;-58
2024/02/08 14:17:57;;;;;;;2.10;0.50;;;13.80;99.90;;;;;;5056999;28;20429;-59
2024/02/08 14:20:35;;;;;;;1.30;0.40;;;13.80;99.90;;;;;;5055994;28;20433;-58
2024/02/08 14:23:02;;;;;;;2.03;0.60;;;13.70;99.90;;;;;;5055470;28;20430;-59
2024/02/08 14:25:48;;;;;;;2.25;0.40;;;13.70;99.90;;;;;;5055772;28;20422;-59
2024/02/08 14:28:16;;;;;;;3.47;0.50;;;13.80;1.00;;;;;;5055845;28;20421;-58
2024/02/08 14:30:42;;;;;;;2.47;0.40;;;13.80;99.90;;;;;;5053412;28;20487;-58
2024/02/08 14:33:11;;;;;;;1.00;0.35;;;13.80;1.00;;;;;;5055113;28;20900;-58
2024/02/08 14:35:39;;;;;;;1.30;0.50;;;13.70;99.90;;;;;;5055245;28;20839;-59
2024/02/08 14:38:07;;;;;;;1.85;0.50;;;13.70;99.90;;;;;;5055695;28;20857;-58
2024/02/08 14:40:34;;;;;;;2.72;0.40;;;13.70;1.00;;;;;;5049108;28;20779;-58
2024/02/08 14:43:06;;;;;;;2.47;0.90;;;13.70;99.90;;;;;;5055247;28;20425;-58
2024/02/08 14:45:38;;;;;;;2.30;0.50;;;13.70;1.00;;;;;;5055903;28;20761;-58
2024/02/08 14:48:09;;;;;;;2.28;0.40;;;13.70;99.90;;;;;;5039803;28;20425;-58
2024/02/08 14:50:51;;;;;;;2.97;0.47;;;13.70;99.90;;;;;;5054749;28;20462;-58
2024/02/08 14:53:20;;;;;;;1.65;0.40;;;13.60;1.00;;;;;;5054816;28;20437;-58
2024/02/08 14:55:47;;;;;;;2.35;0.40;;;13.60;52.10;;;;;;5053335;28;20833;-59
2024/02/08 15:00:57;;;;;;;0.70;0.40;;;13.50;9.30;;;;;;5054750;28;20408;-57
2024/02/08 15:03:27;;;;;;;1.60;0.40;;;13.40;1.00;;;;;;5055096;28;20443;-58
2024/02/08 15:06:00;;;;;;;1.80;0.50;;;13.40;1.00;;;;;;5055019;28;20520;-58